createdAt,value
2022-11-15T00:02:08.225Z,62.17
2022-11-15T00:04:53.273Z,61.86
2022-11-15T00:07:55.039Z,62.06
2022-11-15T00:10:41.283Z,62.20
2022-11-15T00:13:26.520Z,62.23
2022-11-15T00:16:12.198Z,62.45
2022-11-15T00:18:58.418Z,62.64
2022-11-15T00:21:43.647Z,62.96
2022-11-15T00:24:29.348Z,62.66
2022-11-15T00:27:14.813Z,62.84
2022-11-15T00:30:00.129Z,62.75
2022-11-15T00:32:45.404Z,62.78
2022-11-15T00:35:34.411Z,62.42
2022-11-15T00:38:20.068Z,63.02
2022-11-15T00:41:09.602Z,62.87
2022-11-15T00:43:55.215Z,63.00
2022-11-15T00:46:40.529Z,62.93
2022-11-15T00:49:25.757Z,62.94
2022-11-15T00:52:10.890Z,62.94
2022-11-15T00:54:56.547Z,62.94
2022-11-15T00:57:41.982Z,63.21
2022-11-15T01:00:27.122Z,63.48
2022-11-15T01:03:12.497Z,62.92
2022-11-15T01:06:00.429Z,62.95
2022-11-15T01:08:45.857Z,62.88
2022-11-15T01:11:31.303Z,62.80
2022-11-15T01:14:17.083Z,62.82
2022-11-15T01:17:03.793Z,63.20
2022-11-15T01:19:49.144Z,63.20
2022-11-15T01:22:34.619Z,62.92
2022-11-15T01:25:19.899Z,62.98
2022-11-15T01:28:05.217Z,62.66
2022-11-15T01:30:50.590Z,62.69
2022-11-15T01:33:39.587Z,62.75
2022-11-15T01:36:24.962Z,62.76
2022-11-15T01:39:10.043Z,62.73
2022-11-15T01:41:55.768Z,62.90
2022-11-15T01:44:42.861Z,62.90
2022-11-15T01:47:41.612Z,63.08
2022-11-15T01:50:32.697Z,63.39
2022-11-15T01:53:23.005Z,63.16
2022-11-15T01:56:12.533Z,63.36
2022-11-15T01:58:58.756Z,62.70
2022-11-15T02:01:44.566Z,62.96
2022-11-15T02:04:42.630Z,63.19
2022-11-15T02:07:30.745Z,62.77
2022-11-15T02:10:22.439Z,63.01
2022-11-15T02:13:07.821Z,62.94
2022-11-15T02:16:11.605Z,63.18
2022-11-15T02:19:09.625Z,63.41
2022-11-15T02:21:55.360Z,63.10
2022-11-15T02:25:12.641Z,63.23
2022-11-15T02:28:09.889Z,63.11
2022-11-15T02:31:07.083Z,63.44
2022-11-15T02:34:29.343Z,63.36
2022-11-15T02:37:38.350Z,63.29
2022-11-15T02:40:59.259Z,62.94
2022-11-15T02:44:00.020Z,62.86
2022-11-15T02:47:16.410Z,63.03
2022-11-15T02:50:11.199Z,63.03
2022-11-15T02:52:57.017Z,63.22
2022-11-15T02:55:52.960Z,62.96
2022-11-15T02:58:50.432Z,63.43
2022-11-15T03:01:47.642Z,63.57
2022-11-15T03:04:51.503Z,63.27
2022-11-15T03:08:00.863Z,63.42
2022-11-15T03:11:02.738Z,63.15
2022-11-15T03:14:03.556Z,63.44
2022-11-15T03:17:12.605Z,63.23
2022-11-15T03:20:02.254Z,63.58
2022-11-15T03:22:50.355Z,62.94
2022-11-15T03:25:40.235Z,63.40
2022-11-15T03:28:34.516Z,63.19
2022-11-15T03:31:39.796Z,63.24
2022-11-15T03:34:32.561Z,63.02
2022-11-15T03:37:21.776Z,63.28
2022-11-15T03:40:07.742Z,62.91
2022-11-15T03:43:11.476Z,62.99
2022-11-15T03:46:09.008Z,62.76
2022-11-15T03:49:04.277Z,62.88
2022-11-15T03:51:49.683Z,63.12
2022-11-15T03:54:34.735Z,62.93
2022-11-15T03:57:20.135Z,63.04
2022-11-15T04:00:06.415Z,62.92
2022-11-15T04:02:51.638Z,63.10
2022-11-15T04:05:36.757Z,63.35
2022-11-15T04:08:21.727Z,63.07
2022-11-15T04:11:07.119Z,63.33
2022-11-15T04:13:52.552Z,63.37
2022-11-15T04:16:43.505Z,63.14
2022-11-15T04:19:47.714Z,63.05
2022-11-15T04:22:51.307Z,62.90
2022-11-15T04:25:36.644Z,62.82
2022-11-15T04:28:22.815Z,63.32
2022-11-15T04:31:09.028Z,63.33
2022-11-15T04:33:54.911Z,63.28
2022-11-15T04:36:59.250Z,63.19
2022-11-15T04:39:44.846Z,63.36
2022-11-15T04:42:30.320Z,63.23
2022-11-15T04:45:15.917Z,63.51
2022-11-15T04:48:01.526Z,63.45
2022-11-15T04:50:49.369Z,64.23
2022-11-15T04:53:34.724Z,63.82
2022-11-15T04:56:20.427Z,64.16
2022-11-15T04:59:05.757Z,63.88
2022-11-15T05:01:51.038Z,63.61
2022-11-15T05:04:36.219Z,63.43
2022-11-15T05:07:21.775Z,63.65
2022-11-15T05:10:07.539Z,64.13
2022-11-15T05:12:52.898Z,64.15
2022-11-15T05:15:37.984Z,64.08
2022-11-15T05:18:23.911Z,64.03
2022-11-15T05:21:13.313Z,64.03
2022-11-15T05:23:58.772Z,64.07
2022-11-15T05:26:43.758Z,63.96
2022-11-15T05:29:28.978Z,64.10
2022-11-15T05:32:14.815Z,64.10
2022-11-15T05:34:59.813Z,64.19
2022-11-15T05:37:45.630Z,64.29
2022-11-15T05:40:51.773Z,64.37
2022-11-15T05:43:39.721Z,64.29
2022-11-15T05:46:25.118Z,64.46
2022-11-15T05:49:14.499Z,64.29
2022-11-15T05:52:00.022Z,64.25
2022-11-15T05:54:45.653Z,64.15
2022-11-15T05:57:49.229Z,64.34
2022-11-15T06:00:34.670Z,64.75
2022-11-15T06:03:19.756Z,64.41
2022-11-15T06:06:05.082Z,64.58
2022-11-15T06:08:50.577Z,64.38
2022-11-15T06:11:36.244Z,64.64
2022-11-15T06:14:21.694Z,64.56
2022-11-15T06:17:11.163Z,64.38
2022-11-15T06:19:56.997Z,64.18
2022-11-15T06:22:42.300Z,64.43
2022-11-15T06:25:28.968Z,64.73
2022-11-15T06:28:14.679Z,64.84
2022-11-15T06:31:07.690Z,64.84
2022-11-15T06:33:53.090Z,64.39
2022-11-15T06:36:38.642Z,64.46
2022-11-15T06:39:23.850Z,64.56
2022-11-15T06:42:10.267Z,64.44
2022-11-15T06:44:55.348Z,64.51
2022-11-15T06:47:47.749Z,64.52
2022-11-15T06:50:33.212Z,64.68
2022-11-15T06:53:19.199Z,64.75
2022-11-15T06:56:07.544Z,64.81
2022-11-15T06:58:52.626Z,64.61
2022-11-15T07:01:37.805Z,64.92
2022-11-15T07:04:22.859Z,64.97
2022-11-15T07:07:07.913Z,64.58
2022-11-15T07:09:53.214Z,64.85
2022-11-15T07:12:38.680Z,64.71
2022-11-15T07:15:26.162Z,64.92
2022-11-15T07:18:11.338Z,64.73
2022-11-15T07:20:56.726Z,64.63
2022-11-15T07:23:42.119Z,64.58
2022-11-15T07:26:27.695Z,64.92
2022-11-15T07:29:13.256Z,64.76
2022-11-15T07:31:58.835Z,64.77
2022-11-15T07:34:46.319Z,65.04
2022-11-15T07:37:32.447Z,65.05
2022-11-15T07:40:17.796Z,64.97
2022-11-15T07:43:05.431Z,64.55
2022-11-15T07:45:53.503Z,64.36
2022-11-15T07:48:44.756Z,64.78
2022-11-15T07:51:30.659Z,64.62
2022-11-15T07:54:16.182Z,64.54
2022-11-15T07:57:06.891Z,64.50
2022-11-15T07:59:53.165Z,64.69
2022-11-15T08:02:38.116Z,64.53
2022-11-15T08:05:23.349Z,64.80
2022-11-15T08:08:11.644Z,65.13
2022-11-15T08:10:59.290Z,64.96
2022-11-15T08:13:44.819Z,65.06
2022-11-15T08:16:30.009Z,64.93
2022-11-15T08:19:15.427Z,64.72
2022-11-15T08:22:00.617Z,64.17
2022-11-15T08:24:45.952Z,64.29
2022-11-15T08:27:31.588Z,64.12
2022-11-15T08:30:17.195Z,64.21
2022-11-15T08:33:02.522Z,64.25
2022-11-15T08:35:48.456Z,64.27
2022-11-15T08:38:33.807Z,64.12
2022-11-15T08:41:27.462Z,63.61
2022-11-15T08:44:13.110Z,63.88
2022-11-15T08:46:58.724Z,63.61
2022-11-15T08:49:44.094Z,63.47
2022-11-15T08:52:29.479Z,63.19
2022-11-15T08:55:17.377Z,63.02
2022-11-15T08:58:03.242Z,62.95
2022-11-15T09:00:48.420Z,62.68
2022-11-15T09:03:34.248Z,62.99
2022-11-15T09:06:19.734Z,62.63
2022-11-15T09:09:05.049Z,62.64
2022-11-15T09:11:51.730Z,62.71
2022-11-15T09:14:37.461Z,62.63
2022-11-15T09:20:28.919Z,62.31
2022-11-15T09:23:14.198Z,62.45
2022-11-15T09:26:02.226Z,62.41
2022-11-15T09:28:47.550Z,62.17
2022-11-15T09:31:32.472Z,61.97
2022-11-15T09:34:18.063Z,61.98
2022-11-15T09:37:03.429Z,62.08
2022-11-15T09:39:48.572Z,62.03
2022-11-15T09:42:48.753Z,61.76
2022-11-15T09:46:03.441Z,61.79
2022-11-15T09:49:01.395Z,61.84
2022-11-15T09:51:58.393Z,61.74
2022-11-15T09:54:52.189Z,61.75
2022-11-15T09:57:25.908Z,61.60
2022-11-15T10:03:10.542Z,61.72
2022-11-15T10:05:46.492Z,61.79
2022-11-15T10:08:51.433Z,61.51
2022-11-15T10:11:40.433Z,61.45
2022-11-15T10:14:25.898Z,61.41
2022-11-15T10:17:17.607Z,61.51
2022-11-15T10:19:51.969Z,61.21
2022-11-15T10:22:39.523Z,61.19
2022-11-15T10:25:09.581Z,61.38
2022-11-15T10:27:37.027Z,61.08
2022-11-15T10:30:11.271Z,61.04
2022-11-15T10:32:38.179Z,60.86
2022-11-15T10:35:35.593Z,61.12
2022-11-15T10:38:12.958Z,61.01
2022-11-15T10:40:41.473Z,61.04
2022-11-15T10:43:11.042Z,61.00
2022-11-15T10:45:39.552Z,61.05
2022-11-15T10:48:15.519Z,60.89
2022-11-15T10:50:45.341Z,60.81
2022-11-15T10:53:31.717Z,60.70
2022-11-15T10:56:04.015Z,60.82
2022-11-15T10:58:41.457Z,60.80
2022-11-15T11:01:14.034Z,60.63
2022-11-15T11:03:43.164Z,60.65
2022-11-15T11:06:16.197Z,60.67
2022-11-15T11:09:01.290Z,60.63
2022-11-15T11:11:47.822Z,60.62
2022-11-15T11:14:24.088Z,60.43
2022-11-15T11:17:19.152Z,60.52
2022-11-15T11:20:04.682Z,60.67
2022-11-15T11:22:55.908Z,60.33
2022-11-15T11:25:31.790Z,60.31
2022-11-15T11:28:04.329Z,60.39
2022-11-15T11:30:40.081Z,60.34
2022-11-15T11:33:22.689Z,60.11
2022-11-15T11:36:07.655Z,60.24
2022-11-15T11:38:40.292Z,60.26
2022-11-15T11:41:32.819Z,59.99
2022-11-15T11:44:38.178Z,59.94
2022-11-15T11:47:37.520Z,59.84
2022-11-15T11:50:12.620Z,59.95
2022-11-15T11:52:58.384Z,59.82
2022-11-15T11:55:34.161Z,60.11
2022-11-15T11:58:01.066Z,59.88
2022-11-15T12:00:29.525Z,60.08
2022-11-15T12:03:02.355Z,59.96
2022-11-15T12:05:40.382Z,59.89
2022-11-15T12:08:36.835Z,59.79
2022-11-15T12:11:17.012Z,59.88
2022-11-15T12:13:44.766Z,59.83
2022-11-15T12:16:15.775Z,59.76
2022-11-15T12:18:48.735Z,59.73
2022-11-15T12:21:38.493Z,59.86
2022-11-15T12:24:38.524Z,59.58
2022-11-15T12:27:08.214Z,59.58
2022-11-15T12:29:43.064Z,59.66
2022-11-15T12:32:25.351Z,59.83
2022-11-15T12:34:53.479Z,59.53
2022-11-15T12:37:45.138Z,59.71
2022-11-15T12:41:10.840Z,59.60
2022-11-15T12:43:42.943Z,59.67
2022-11-15T12:46:22.195Z,59.49
2022-11-15T12:48:54.575Z,59.43
2022-11-15T12:51:24.033Z,59.39
2022-11-15T12:53:50.822Z,59.49
2022-11-15T12:56:17.774Z,59.60
2022-11-15T12:59:06.231Z,59.28
2022-11-15T13:01:39.023Z,59.25
2022-11-15T13:04:21.098Z,59.43
2022-11-15T13:06:52.949Z,59.24
2022-11-15T13:09:35.084Z,59.56
2022-11-15T13:12:05.735Z,59.70
2022-11-15T13:14:38.475Z,59.29
2022-11-15T13:17:21.158Z,59.50
2022-11-15T13:19:54.251Z,59.60
2022-11-15T13:22:39.385Z,59.45
2022-11-15T13:25:16.977Z,59.41
2022-11-15T13:27:43.718Z,59.21
2022-11-15T13:30:27.835Z,59.36
2022-11-15T13:32:55.008Z,59.48
2022-11-15T13:35:27.744Z,59.49
2022-11-15T13:37:57.040Z,59.37
2022-11-15T13:40:31.196Z,59.45
2022-11-15T13:42:59.396Z,59.25
2022-11-15T13:45:27.877Z,59.29
2022-11-15T13:47:59.181Z,59.41
2022-11-15T13:50:33.945Z,59.63
2022-11-15T13:53:03.698Z,59.46
2022-11-15T13:55:34.027Z,59.26
2022-11-15T13:58:07.187Z,59.36
2022-11-15T14:00:39.984Z,59.15
2022-11-15T14:03:28.909Z,59.31
2022-11-15T14:06:16.121Z,59.26
2022-11-15T14:09:25.636Z,59.35
2022-11-15T14:11:54.855Z,59.30
2022-11-15T14:14:24.154Z,59.34
2022-11-15T14:17:01.638Z,59.37
2022-11-15T14:19:28.534Z,59.55
2022-11-15T14:22:21.767Z,59.30
2022-11-15T14:25:13.776Z,59.21
2022-11-15T14:27:42.341Z,59.23
2022-11-15T14:30:18.787Z,59.23
2022-11-15T14:32:48.818Z,59.23
2022-11-15T14:35:19.445Z,59.13
2022-11-15T14:37:46.564Z,59.06
2022-11-15T14:40:18.423Z,59.36
2022-11-15T14:42:46.780Z,59.21
2022-11-15T14:45:19.945Z,59.17
2022-11-15T14:47:47.139Z,59.10
2022-11-15T14:50:16.420Z,59.15
2022-11-15T14:52:43.761Z,59.16
2022-11-15T14:55:37.005Z,59.13
2022-11-15T14:58:05.041Z,59.40
2022-11-15T15:00:35.260Z,59.16
2022-11-15T15:03:03.439Z,58.89
2022-11-15T15:05:39.487Z,59.16
2022-11-15T15:08:06.907Z,59.05
2022-11-15T15:10:40.794Z,59.08
2022-11-15T15:13:20.634Z,59.24
2022-11-15T15:15:48.968Z,58.98
2022-11-15T15:18:16.626Z,59.03
2022-11-15T15:20:44.864Z,59.24
2022-11-15T15:23:17.622Z,59.11
2022-11-15T15:25:46.564Z,59.30
2022-11-15T15:28:14.075Z,59.23
2022-11-15T15:30:41.506Z,58.98
2022-11-15T15:33:08.406Z,59.24
2022-11-15T15:35:36.408Z,59.31
2022-11-15T15:38:03.730Z,59.37
2022-11-15T15:40:32.693Z,59.22
2022-11-15T15:43:00.726Z,59.16
2022-11-15T15:45:28.818Z,59.32
2022-11-15T15:47:55.854Z,59.09
2022-11-15T15:50:25.332Z,59.19
2022-11-15T15:52:53.684Z,58.95
2022-11-15T15:55:21.349Z,59.00
2022-11-15T15:57:48.812Z,58.94
2022-11-15T16:00:16.881Z,58.99
2022-11-15T16:02:43.873Z,58.99
2022-11-15T16:05:11.680Z,59.08
2022-11-15T16:07:39.015Z,59.22
2022-11-15T16:10:17.446Z,59.11
2022-11-15T16:12:45.112Z,59.07
2022-11-15T16:15:12.031Z,59.17
2022-11-15T16:17:45.000Z,59.10
2022-11-15T16:20:31.416Z,58.94
2022-11-15T16:23:00.433Z,58.95
2022-11-15T16:25:31.526Z,59.24
2022-11-15T16:27:58.377Z,59.20
2022-11-15T16:30:25.107Z,59.00
2022-11-15T16:32:52.046Z,59.28
2022-11-15T16:35:19.287Z,59.16
2022-11-15T16:37:47.288Z,58.99
2022-11-15T16:40:31.874Z,59.32
2022-11-15T16:43:00.027Z,59.07
2022-11-15T16:45:29.277Z,59.32
2022-11-15T16:47:56.682Z,58.94
2022-11-15T16:50:26.089Z,59.00
2022-11-15T16:52:53.906Z,59.07
2022-11-15T16:55:22.305Z,59.21
2022-11-15T16:57:50.019Z,59.42
2022-11-15T17:00:19.240Z,59.11
2022-11-15T17:02:50.269Z,59.25
2022-11-15T17:05:20.410Z,59.05
2022-11-15T17:07:50.543Z,59.23
2022-11-15T17:10:17.628Z,59.35
2022-11-15T17:12:44.660Z,59.31
2022-11-15T17:15:14.497Z,58.95
2022-11-15T17:17:42.121Z,59.18
2022-11-15T17:20:16.809Z,59.37
2022-11-15T17:22:43.827Z,59.32
2022-11-15T17:25:10.725Z,59.40
2022-11-15T17:27:37.548Z,59.00
2022-11-15T17:30:05.216Z,58.93
2022-11-15T17:32:32.081Z,59.39
2022-11-15T17:34:58.900Z,59.13
2022-11-15T17:37:25.654Z,59.29
2022-11-15T17:39:52.512Z,59.05
2022-11-15T17:42:19.288Z,59.55
2022-11-15T17:44:46.117Z,59.86
2022-11-15T17:47:15.650Z,59.70
2022-11-15T17:49:42.532Z,59.52
2022-11-15T17:52:09.517Z,59.64
2022-11-15T17:54:36.410Z,59.68
2022-11-15T17:57:03.503Z,59.61
2022-11-15T17:59:30.296Z,59.73
2022-11-15T18:01:57.080Z,59.71
2022-11-15T18:04:28.392Z,59.52
2022-11-15T18:06:56.474Z,59.33
2022-11-15T18:09:24.745Z,59.42
2022-11-15T18:11:54.485Z,59.48
2022-11-15T18:14:21.569Z,59.33
2022-11-15T18:16:48.603Z,59.23
2022-11-15T18:19:15.392Z,59.50
2022-11-15T18:21:56.385Z,59.26
2022-11-15T18:24:29.786Z,59.13
2022-11-15T18:26:57.800Z,59.30
2022-11-15T18:29:25.052Z,59.37
2022-11-15T18:31:55.805Z,59.13
2022-11-15T18:34:24.682Z,59.43
2022-11-15T18:36:53.959Z,59.57
2022-11-15T18:39:20.752Z,59.31
2022-11-15T18:41:48.301Z,59.52
2022-11-15T18:44:16.086Z,59.46
2022-11-15T18:46:45.077Z,59.41
2022-11-15T18:49:32.647Z,59.63
2022-11-15T18:51:59.454Z,59.72
2022-11-15T18:54:31.034Z,59.78
2022-11-15T18:56:58.718Z,59.57
2022-11-15T18:59:27.652Z,59.46
2022-11-15T19:01:54.365Z,59.42
2022-11-15T19:04:22.269Z,59.37
2022-11-15T19:06:50.697Z,59.36
2022-11-15T19:09:21.095Z,59.63
2022-11-15T19:11:51.606Z,59.60
2022-11-15T19:14:19.149Z,59.70
2022-11-15T19:16:52.416Z,59.64
2022-11-15T19:19:24.687Z,59.75
2022-11-15T19:21:52.143Z,59.52
2022-11-15T19:24:19.418Z,59.42
2022-11-15T19:26:46.960Z,59.80
2022-11-15T19:29:14.200Z,59.77
2022-11-15T19:31:42.013Z,59.48
2022-11-15T19:34:08.933Z,59.54
2022-11-15T19:36:38.557Z,59.74
2022-11-15T19:39:09.917Z,59.49
2022-11-15T19:41:38.850Z,59.42
2022-11-15T19:44:06.879Z,59.50
2022-11-15T19:46:34.702Z,59.62
2022-11-15T19:49:10.748Z,59.59
2022-11-15T19:51:39.055Z,59.49
2022-11-15T19:54:08.881Z,59.58
2022-11-15T19:56:36.229Z,59.64
2022-11-15T19:59:04.927Z,59.80
2022-11-15T20:01:36.214Z,59.75
2022-11-15T20:04:03.362Z,59.84
2022-11-15T20:06:36.142Z,59.68
2022-11-15T20:09:21.896Z,59.85
2022-11-15T20:11:48.686Z,59.83
2022-11-15T20:14:15.698Z,59.77
2022-11-15T20:16:42.682Z,60.80
2022-11-15T20:19:09.776Z,61.01
2022-11-15T20:21:36.458Z,60.99
2022-11-15T20:24:04.190Z,60.69
2022-11-15T20:26:32.328Z,60.66
2022-11-15T20:29:01.169Z,60.50
2022-11-15T20:31:28.625Z,60.27
2022-11-15T20:33:55.668Z,60.51
2022-11-15T20:36:22.830Z,60.07
2022-11-15T20:38:49.585Z,60.06
2022-11-15T20:41:16.577Z,60.12
2022-11-15T20:43:43.816Z,60.23
2022-11-15T20:46:29.367Z,60.19
2022-11-15T20:48:56.289Z,60.33
2022-11-15T20:51:23.005Z,60.29
2022-11-15T20:53:50.230Z,60.04
2022-11-15T20:56:20.004Z,60.13
2022-11-15T20:58:47.314Z,60.25
2022-11-15T21:01:15.787Z,59.84
2022-11-15T21:03:43.201Z,59.90
2022-11-15T21:06:11.156Z,60.10
2022-11-15T21:08:57.480Z,59.91
2022-11-15T21:11:43.581Z,60.12
2022-11-15T21:14:10.400Z,60.09
2022-11-15T21:16:37.969Z,59.93
2022-11-15T21:19:06.006Z,60.15
2022-11-15T21:21:32.980Z,60.31
2022-11-15T21:24:00.055Z,60.21
2022-11-15T21:26:26.794Z,59.83
2022-11-15T21:28:53.511Z,60.09
2022-11-15T21:31:20.658Z,60.09
2022-11-15T21:33:47.640Z,60.14
2022-11-15T21:36:14.906Z,60.26
2022-11-15T21:38:41.881Z,60.36
2022-11-15T21:41:08.843Z,60.52
2022-11-15T21:43:35.778Z,60.77
2022-11-15T21:46:04.872Z,60.93
2022-11-15T21:48:33.542Z,60.84
2022-11-15T21:51:02.850Z,60.87
2022-11-15T21:53:30.249Z,60.56
2022-11-15T21:55:57.631Z,60.55
2022-11-15T21:58:24.754Z,60.28
2022-11-15T22:01:10.508Z,60.81
2022-11-15T22:03:37.280Z,60.89
2022-11-15T22:06:06.960Z,61.21
2022-11-15T22:08:52.175Z,60.77
2022-11-15T22:11:19.061Z,61.04
2022-11-15T22:13:46.018Z,61.00
2022-11-15T22:16:12.872Z,60.96
2022-11-15T22:18:39.924Z,60.83
2022-11-15T22:21:13.455Z,61.22
2022-11-15T22:23:41.278Z,61.28
2022-11-15T22:26:11.715Z,61.21
2022-11-15T22:28:38.701Z,61.36
2022-11-15T22:31:05.579Z,61.34
2022-11-15T22:33:34.456Z,61.71
2022-11-15T22:36:01.762Z,61.62
2022-11-15T22:38:29.346Z,61.99
2022-11-15T22:40:56.637Z,61.98
2022-11-15T22:43:24.783Z,61.72
2022-11-15T22:45:51.425Z,61.84
2022-11-15T22:48:20.430Z,61.81
2022-11-15T22:50:47.319Z,62.04
2022-11-15T22:53:14.347Z,62.42
2022-11-15T22:55:41.595Z,62.43
2022-11-15T22:58:09.077Z,62.24
2022-11-15T23:00:36.259Z,62.04
2022-11-15T23:03:05.756Z,62.33
2022-11-15T23:05:32.725Z,62.19
2022-11-15T23:08:18.044Z,62.46
2022-11-15T23:11:03.805Z,62.25
2022-11-15T23:13:32.018Z,62.60
2022-11-15T23:16:23.559Z,62.73
2022-11-15T23:18:55.988Z,62.48
2022-11-15T23:21:47.628Z,62.69
2022-11-15T23:24:17.901Z,62.81
2022-11-15T23:26:46.793Z,63.01
2022-11-15T23:29:16.273Z,63.01
2022-11-15T23:32:05.834Z,62.94
2022-11-15T23:34:35.982Z,62.99
2022-11-15T23:37:03.756Z,63.10
2022-11-15T23:39:30.770Z,63.28
2022-11-15T23:41:57.653Z,63.25
2022-11-15T23:44:24.846Z,63.35
2022-11-15T23:46:52.066Z,63.36
2022-11-15T23:49:19.407Z,63.45
2022-11-15T23:51:46.161Z,63.38
2022-11-15T23:54:13.477Z,63.46
2022-11-15T23:56:40.615Z,63.46
2022-11-15T23:59:07.702Z,63.48
